GMMX/RAK METAR and TAF weather

Enter ICAO airport designator
Station Type Date Time Source
GMMX METAR 2019/10/15 19:30 UTC NOAA

GMMX 151930Z 03007KT 360V060 9999 FEW100 24/08 Q1020 NOSIG


Station Type Date Time Source
GMMX Decoded METAR 2019/10/15 19:30 UTC NOAA

Marrakech, Morocco (GMMX) 31-37N 008-02W 466M
Oct 15, 2019 - 03:30 PM EDT / 2019.10.15 1930 UTC
Wind: from the NNE (030 degrees) at 8 MPH (7 KT) (direction variable):0
Visibility: greater than 7 mile(s):0
Sky conditions: mostly clear
Temperature: 75 F (24 C)
Dew Point: 46 F (8 C)
Relative Humidity: 35%
Pressure (altimeter): 30.12 in. Hg (1020 hPa)
ob: GMMX 151930Z 03007KT 360V060 9999 FEW100 24/08 Q1020 NOSIG
cycle: 19

Station Type Date Time Source
GMMX TAF 2019/10/15 18:39 UTC NOAA

TAF TAF GMMX 151700Z 1518/1624 06006KT 8000 NSC
TEMPO 1518/1521 34014KT
TEMPO 1617/1622 32014KT SCT030

Example: see airport list